West Warren, MA (01092)

10:44 PM EDT on September 14, 2014 (GMT -0400)
KMAWARE2 | Change Station
CLOSE
Current Station
Personal Weather Station
Location: Ware, MA
Elevation: 625 ft
Nearby Weather Stations

Elev 625 ft 42.23 °N, 72.27 °W | Updated 1 minute ago

Clear
Clear
48.2 °F
Feels Like 48 °F
N
-
Wind Variable Wind from North

Today
High -- | Low -- °F
--% Chance of Precip.
Yesterday
High -- | Low -- °F
Precip. -- in
6:27 AM 7:00 PM
Waning Gibbous, 60% visible
Pressure 30.21 in
Visibility 10.0 miles
Clouds Clear
Windchill 48 °F
Dew Point 48 °F
Humidity 99%
Rainfall -999.00 in
Snow Depth Not available.
UV 0 out of 12
Pollen 3.80 out of 12
PM2.5 Good
Flu Activity Not available.
SPECI KCEF 150218Z 03002KT 10SM MIFG CLR 09/08 A3021 RMK AO2A CHINO RWY05

More Conditions Fewer Conditions

Pressure 30.21 in
Visibility 10.0 miles
Clouds Clear
Windchill 48 °F
Dew Point 48 °F
Humidity 99%
Rainfall -999.00 in
Snow Depth Not available.
UV 0 out of 12
Pollen 3.80 out of 12
PM2.5 Good
Flu Activity Not available.
SPECI KCEF 150218Z 03002KT 10SM MIFG CLR 09/08 A3021 RMK AO2A CHINO RWY05

More Conditions Fewer Conditions

10-Day Weather Forecast

Almanac

Astronomy

Sep. 14, 2014 Rise Set
Actual Time 6:27 AM EDT 7:00 PM EDT
Civil Twilight 5:59 AM EDT 7:28 PM EDT
Nautical Twilight 5:26 AM EDT 8:01 PM EDT
Astronomical Twilight 4:52 AM EDT 8:35 PM EDT
Moon 10:44 PM EDT (9/14) 12:37 PM EDT (9/14)
Length of Visible Light 13h 28m
Length of Day
12h 32m
Tomorrow will be 2m 48s shorter.
Waning Gibbous, 60% of the Moon is Illuminated
Today
Waning Gibbous
Sep 15
Last Quarter
Sep 24
New
Oct 1
First Quarter
Oct 8
Full

Today's Extremes

State Highs State Lows

Community

WunderPhotos

Upload Photos

1,753,385 photos uploaded!

Nearby

Air Quality

  Air Quality AQ Index Pollutant
Yesterday Good
PM2.5
Yesterday Good
OZONE
Current Good
PM2.5
Sunday Good
PM2.5
Sunday Good
OZONE
Monday Good
PM2.5
Monday Good
OZONE

Snow Depth

Station Depth Elevation
No new snow has been reported.

Earthquake Activity

City Distance Mag. Time & Date
No recent earthquake activity has been reported nearby.
Minimum magnitude displayed is 2.5.

Coastal Water Temperatures

Place Temperature
No Stations Reporting

Nearby Weather Stations